Time;durP1;ratioP1;P1;durP2;ratioP2;P2;SDS_P1;SDS_P2;PMS_P1;PMS_P2;Temp;Humidity;BMP_temperature;BMP_pressure;BME280_temperature;BME280_humidity;BME280_pressure;Samples;Min_cycle;Max_cycle;Signal;HPM_P1;HPM_P2
2023/03/18 00:01:14;;;;;;;;;;;26.70;99.90;;;;;;5039744;28;20672;-68
2023/03/18 00:03:41;;;;;;;;;;;26.70;99.90;;;;;;5040624;28;19909;-68
2023/03/18 00:06:12;;;;;;;;;;;26.80;99.90;;;;;;5039033;28;20329;-69
2023/03/18 00:08:40;;;;;;;;;;;26.80;99.90;;;;;;5040526;28;19964;-69
2023/03/18 00:11:07;;;;;;;;;;;26.90;99.90;;;;;;5039882;28;20371;-68
2023/03/18 00:13:34;;;;;;;;;;;26.90;99.90;;;;;;5040407;28;19996;-70
2023/03/18 00:16:01;;;;;;;;;;;26.90;99.90;;;;;;5038429;28;19962;-68
2023/03/18 00:18:28;;;;;;;;;;;26.90;99.90;;;;;;5040210;28;19908;-70
2023/03/18 00:20:56;;;;;;;;;;;27.00;99.90;;;;;;5040471;28;19913;-68
2023/03/18 00:23:23;;;;;;;;;;;27.10;99.90;;;;;;5042109;28;21050;-71
2023/03/18 00:25:51;;;;;;;;;;;27.10;99.90;;;;;;5033496;28;19913;-70
2023/03/18 00:28:19;;;;;;;;;;;27.20;99.90;;;;;;5040132;28;19935;-68
2023/03/18 00:30:46;;;;;;;;;;;27.10;99.90;;;;;;5039309;28;19974;-69
2023/03/18 00:33:13;;;;;;;;;;;27.30;99.90;;;;;;5038574;28;19923;-69
2023/03/18 00:35:39;;;;;;;;;;;27.30;99.90;;;;;;5039616;28;19924;-69
2023/03/18 00:38:07;;;;;;;;;;;27.40;99.90;;;;;;5039048;28;19978;-68
2023/03/18 00:40:52;;;;;;;;;;;27.50;99.90;;;;;;5039986;28;19921;-68
2023/03/18 00:43:21;;;;;;;;;;;27.60;99.90;;;;;;5038136;28;19909;-69
2023/03/18 00:45:49;;;;;;;;;;;27.80;99.90;;;;;;5038658;28;19917;-69
2023/03/18 00:48:16;;;;;;;;;;;27.90;99.90;;;;;;5038551;28;19925;-69
2023/03/18 00:50:44;;;;;;;;;;;27.90;99.90;;;;;;5040122;28;19917;-69
2023/03/18 00:53:11;;;;;;;;;;;28.00;99.90;;;;;;5039772;28;20336;-68
2023/03/18 00:55:38;;;;;;;;;;;28.00;99.90;;;;;;5039699;28;19917;-68
2023/03/18 00:58:05;;;;;;;;;;;28.00;99.90;;;;;;5039429;28;19920;-67
2023/03/18 01:00:31;;;;;;;;;;;28.20;99.90;;;;;;5043480;28;20376;-69
2023/03/18 01:02:58;;;;;;;;;;;28.30;99.90;;;;;;5044572;28;19948;-68
2023/03/18 01:05:25;;;;;;;;;;;28.40;99.90;;;;;;5043159;28;19948;-68
2023/03/18 01:07:52;;;;;;;;;;;28.30;99.90;;;;;;5043834;28;20333;-70
2023/03/18 01:10:19;;;;;;;;;;;28.40;99.90;;;;;;5043715;28;19912;-70
2023/03/18 01:12:46;;;;;;;;;;;28.40;99.90;;;;;;5043744;28;19917;-69
2023/03/18 01:15:15;;;;;;;;;;;28.60;99.90;;;;;;5042194;28;19917;-68
2023/03/18 01:17:42;;;;;;;;;;;28.80;99.90;;;;;;5043609;28;19912;-68
2023/03/18 01:20:10;;;;;;;;;;;28.90;99.90;;;;;;5042453;28;19915;-70
2023/03/18 01:22:38;;;;;;;;;;;29.00;99.90;;;;;;5043381;28;19919;-68
2023/03/18 01:25:04;;;;;;;;;;;29.20;99.90;;;;;;5039450;28;20372;-70
2023/03/18 01:27:31;;;;;;;;;;;29.30;99.70;;;;;;5042248;28;19917;-70
2023/03/18 01:29:58;;;;;;;;;;;29.40;99.90;;;;;;5043418;28;20297;-68
2023/03/18 01:32:25;;;;;;;;;;;29.60;99.90;;;;;;5041942;28;19988;-70
2023/03/18 01:34:52;;;;;;;;;;;29.80;99.90;;;;;;5043802;28;20423;-67
2023/03/18 01:37:18;;;;;;;;;;;30.10;99.90;;;;;;5042361;28;19913;-69
2023/03/18 01:39:45;;;;;;;;;;;30.10;99.90;;;;;;5042971;28;19913;-69
2023/03/18 01:42:13;;;;;;;;;;;30.10;99.90;;;;;;5041758;28;20058;-69
2023/03/18 01:44:40;;;;;;;;;;;30.30;99.90;;;;;;5042016;28;19913;-69
2023/03/18 01:47:06;;;;;;;;;;;30.40;99.90;;;;;;5043339;28;20011;-69
2023/03/18 01:49:38;;;;;;;;;;;30.50;99.90;;;;;;5042804;28;19917;-69
2023/03/18 01:52:07;;;;;;;;;;;30.60;99.90;;;;;;5043035;28;19919;-68
2023/03/18 01:54:36;;;;;;;;;;;30.70;99.90;;;;;;5042095;28;20004;-69
2023/03/18 01:57:03;;;;;;;;;;;30.80;99.40;;;;;;5043442;28;20015;-70
2023/03/18 01:59:32;;;;;;;;;;;30.90;99.10;;;;;;5041636;28;19908;-70
2023/03/18 02:02:05;;;;;;;;;;;30.80;99.00;;;;;;5042711;28;19913;-70
2023/03/18 02:04:58;;;;;;;;;;;30.70;99.20;;;;;;5032010;28;19913;-70
2023/03/18 02:07:26;;;;;;;;;;;30.80;99.30;;;;;;5040577;28;19913;-69
2023/03/18 02:09:54;;;;;;;;;;;31.10;98.50;;;;;;5042022;28;19917;-69
2023/03/18 02:12:23;;;;;;;;;;;31.10;98.70;;;;;;5040431;28;19913;-67
2023/03/18 02:14:51;;;;;;;;;;;31.00;99.30;;;;;;5042660;28;19909;-69
2023/03/18 02:17:20;;;;;;;;;;;31.20;99.10;;;;;;5041373;28;19913;-69
2023/03/18 02:19:56;;;;;;;;;;;31.50;99.00;;;;;;5041156;28;19981;-69
2023/03/18 02:22:26;;;;;;;;;;;31.90;98.20;;;;;;5041068;28;20067;-69
2023/03/18 02:25:09;;;;;;;;;;;32.10;98.10;;;;;;5042314;28;19908;-69
2023/03/18 02:27:38;;;;;;;;;;;32.20;97.50;;;;;;5041012;28;20003;-69
2023/03/18 02:30:08;;;;;;;;;;;32.30;96.70;;;;;;5043094;28;19928;-69
2023/03/18 02:32:34;;;;;;;;;;;32.40;96.40;;;;;;5040488;28;19920;-68
2023/03/18 02:35:03;;;;;;;;;;;32.50;97.00;;;;;;5042705;28;19909;-69
2023/03/18 02:37:30;;;;;;;;;;;32.50;96.10;;;;;;5041648;28;19913;-69
2023/03/18 02:40:11;;;;;;;;;;;32.50;96.80;;;;;;5043018;28;20286;-68
2023/03/18 02:42:37;;;;;;;;;;;32.80;96.30;;;;;;5039869;28;19912;-70
2023/03/18 02:45:07;;;;;;;;;;;32.90;95.40;;;;;;5042066;28;20206;-69
2023/03/18 02:47:34;;;;;;;;;;;32.80;95.70;;;;;;5041790;28;19913;-68
2023/03/18 02:50:02;;;;;;;;;;;32.80;95.30;;;;;;5042306;28;20381;-69
2023/03/18 02:52:29;;;;;;;;;;;33.30;95.00;;;;;;5040751;28;19924;-69
2023/03/18 02:54:58;;;;;;;;;;;33.70;94.10;;;;;;5038274;28;19951;-69
2023/03/18 02:57:25;;;;;;;;;;;34.40;93.30;;;;;;5039012;28;20526;-70
2023/03/18 02:59:51;;;;;;;;;;;34.60;92.80;;;;;;5041393;28;20366;-70
2023/03/18 03:02:18;;;;;;;;;;;35.30;92.40;;;;;;5041279;28;19917;-69
2023/03/18 03:04:46;;;;;;;;;;;36.40;90.60;;;;;;5041232;28;19919;-69
2023/03/18 03:07:12;;;;;;;;;;;37.20;89.90;;;;;;5040135;28;19913;-69
2023/03/18 03:09:40;;;;;;;;;;;38.30;86.10;;;;;;5041028;28;20552;-71
2023/03/18 03:12:08;;;;;;;;;;;39.10;83.10;;;;;;5041317;28;20321;-70
2023/03/18 03:14:34;;;;;;;;;;;38.70;81.60;;;;;;5041066;28;20369;-69
2023/03/18 03:17:01;;;;;;;;;;;38.60;81.10;;;;;;5040738;28;19917;-69
2023/03/18 03:19:29;;;;;;;;;;;38.80;80.80;;;;;;5041584;28;19963;-70
2023/03/18 03:21:56;;;;;;;;;;;39.50;78.00;;;;;;5040416;28;20572;-70
2023/03/18 03:24:22;;;;;;;;;;;39.00;79.00;;;;;;5040584;28;20436;-71
2023/03/18 03:26:49;;;;;;;;;;;39.90;77.70;;;;;;5040335;28;20007;-68
2023/03/18 03:29:16;;;;;;;;;;;40.90;75.70;;;;;;5040391;28;19921;-68
2023/03/18 03:31:42;;;;;;;;;;;41.60;74.80;;;;;;5041050;28;19913;-69
2023/03/18 03:34:09;;;;;;;;;;;42.40;72.00;;;;;;5040132;28;19913;-69
2023/03/18 03:36:36;;;;;;;;;;;42.70;70.80;;;;;;5040303;28;20451;-70
2023/03/18 03:39:04;;;;;;;;;;;42.50;71.60;;;;;;5040138;28;19917;-69
2023/03/18 03:41:31;;;;;;;;;;;42.90;70.30;;;;;;5039160;28;19927;-72
2023/03/18 03:43:58;;;;;;;;;;;43.20;68.50;;;;;;5040223;28;20011;-70
2023/03/18 03:46:25;;;;;;;;;;;42.80;69.20;;;;;;5039172;28;20002;-71
2023/03/18 03:48:51;;;;;;;;;;;43.10;69.30;;;;;;5039896;28;20643;-69
2023/03/18 03:51:18;;;;;;;;;;;43.20;68.00;;;;;;5039961;28;19909;-70
2023/03/18 03:53:45;;;;;;;;;;;42.60;68.50;;;;;;5038692;28;19916;-72
2023/03/18 03:56:11;;;;;;;;;;;41.80;69.30;;;;;;5039795;28;19909;-70
2023/03/18 03:58:38;;;;;;;;;;;42.10;69.70;;;;;;5040659;28;19979;-68
2023/03/18 04:01:05;;;;;;;;;;;42.50;67.90;;;;;;5039448;28;20024;-72
2023/03/18 04:03:32;;;;;;;;;;;41.70;69.90;;;;;;5040142;28;19923;-73
2023/03/18 04:05:59;;;;;;;;;;;42.30;69.10;;;;;;5039553;28;20386;-69
2023/03/18 04:08:26;;;;;;;;;;;42.80;66.60;;;;;;5039742;28;20382;-69
2023/03/18 04:10:52;;;;;;;;;;;43.00;66.10;;;;;;5040400;28;20269;-72
2023/03/18 04:13:19;;;;;;;;;;;42.80;66.60;;;;;;5039295;28;19913;-70
2023/03/18 04:15:46;;;;;;;;;;;41.50;68.90;;;;;;5039856;28;19917;-68
2023/03/18 04:18:13;;;;;;;;;;;42.00;69.10;;;;;;5039926;28;20409;-69
2023/03/18 04:20:40;;;;;;;;;;;43.00;67.10;;;;;;5040047;28;19920;-70
2023/03/18 04:23:07;;;;;;;;;;;43.80;65.60;;;;;;5038336;28;19955;-70
2023/03/18 04:25:34;;;;;;;;;;;43.40;66.70;;;;;;5037900;28;19936;-69
2023/03/18 04:28:01;;;;;;;;;;;43.40;66.10;;;;;;5038981;28;19967;-69
2023/03/18 04:30:27;;;;;;;;;;;43.40;66.10;;;;;;5038022;28;20612;-69
2023/03/18 04:32:54;;;;;;;;;;;43.00;66.70;;;;;;5037749;28;20668;-68
2023/03/18 04:35:22;;;;;;;;;;;43.80;64.90;;;;;;5036572;28;20339;-69
2023/03/18 04:37:48;;;;;;;;;;;43.80;66.10;;;;;;5038063;28;20536;-69
2023/03/18 04:40:15;;;;;;;;;;;44.50;64.50;;;;;;5036162;28;19925;-69
2023/03/18 04:42:44;;;;;;;;;;;44.40;64.00;;;;;;5037316;28;19940;-71
2023/03/18 04:45:11;;;;;;;;;;;44.30;65.10;;;;;;5037120;28;19917;-71
2023/03/18 04:47:38;;;;;;;;;;;43.60;65.30;;;;;;5039052;28;20598;-70
2023/03/18 04:50:05;;;;;;;;;;;43.80;64.30;;;;;;5037517;28;19921;-70
2023/03/18 04:52:32;;;;;;;;;;;43.80;64.30;;;;;;5038863;28;19909;-69
2023/03/18 04:54:59;;;;;;;;;;;43.70;64.90;;;;;;5039227;28;20373;-71
2023/03/18 04:57:26;;;;;;;;;;;44.20;64.20;;;;;;5040277;28;19909;-69
2023/03/18 04:59:53;;;;;;;;;;;44.30;63.80;;;;;;5040143;28;19915;-72
2023/03/18 05:02:19;;;;;;;;;;;43.60;64.40;;;;;;5038261;28;19913;-69
2023/03/18 05:04:46;;;;;;;;;;;43.70;64.60;;;;;;5040240;28;20010;-69
2023/03/18 05:07:14;;;;;;;;;;;43.70;64.40;;;;;;5039745;28;19909;-69
2023/03/18 05:09:41;;;;;;;;;;;43.30;65.20;;;;;;5040541;28;19971;-69
2023/03/18 05:12:14;;;;;;;;;;;43.40;65.70;;;;;;5040329;28;19955;-69
2023/03/18 05:14:41;;;;;;;;;;;44.30;65.30;;;;;;5040533;28;20369;-68
2023/03/18 05:17:14;;;;;;;;;;;44.30;64.30;;;;;;5039858;28;19909;-70
2023/03/18 05:19:45;;;;;;;;;;;44.20;64.20;;;;;;5040677;28;20016;-68
2023/03/18 05:22:14;;;;;;;;;;;44.10;64.30;;;;;;5040083;28;19920;-71
2023/03/18 05:24:42;;;;;;;;;;;42.70;65.70;;;;;;5039768;28;19913;-68
2023/03/18 05:27:09;;;;;;;;;;;42.40;67.20;;;;;;5039760;28;19919;-68
2023/03/18 05:29:37;;;;;;;;;;;42.20;67.00;;;;;;5039957;28;20388;-69
2023/03/18 05:32:05;;;;;;;;;;;42.00;67.50;;;;;;5039482;28;19908;-69
2023/03/18 05:34:37;;;;;;;;;;;41.10;68.70;;;;;;5039174;28;20351;-68
2023/03/18 05:37:04;;;;;;;;;;;40.50;69.70;;;;;;5038719;28;20365;-69
2023/03/18 05:39:32;;;;;;;;;;;40.80;69.40;;;;;;5037605;28;19919;-69
2023/03/18 05:41:59;;;;;;;;;;;41.30;70.40;;;;;;5035195;28;20421;-70
2023/03/18 05:44:27;;;;;;;;;;;41.00;69.20;;;;;;5037950;28;19944;-69
2023/03/18 05:46:53;;;;;;;;;;;40.80;69.80;;;;;;5040003;28;19917;-69
2023/03/18 05:49:20;;;;;;;;;;;41.60;69.60;;;;;;5040993;28;19924;-68
2023/03/18 05:51:47;;;;;;;;;;;42.30;67.60;;;;;;5040633;28;19913;-69
2023/03/18 05:54:15;;;;;;;;;;;40.50;70.30;;;;;;5040076;28;19921;-69
2023/03/18 05:56:44;;;;;;;;;;;40.70;69.30;;;;;;5041031;28;19908;-68
2023/03/18 05:59:12;;;;;;;;;;;39.30;72.40;;;;;;5041354;28;19913;-69
2023/03/18 06:01:40;;;;;;;;;;;39.30;72.80;;;;;;5038712;28;19909;-67
2023/03/18 06:04:07;;;;;;;;;;;39.70;71.60;;;;;;5041043;28;20109;-69
2023/03/18 06:06:36;;;;;;;;;;;38.60;72.60;;;;;;5039327;28;19912;-68
2023/03/18 06:09:03;;;;;;;;;;;37.90;75.50;;;;;;5041175;28;19921;-70
2023/03/18 06:11:30;;;;;;;;;;;38.90;75.10;;;;;;5041160;28;19908;-68
2023/03/18 06:13:57;;;;;;;;;;;39.30;72.40;;;;;;5040089;28;20302;-68
2023/03/18 06:16:23;;;;;;;;;;;38.70;74.20;;;;;;5040082;28;19913;-70
2023/03/18 06:18:50;;;;;;;;;;;38.80;73.80;;;;;;5039223;28;19924;-68
2023/03/18 06:21:17;;;;;;;;;;;38.40;74.30;;;;;;5037812;28;19917;-68
2023/03/18 06:23:44;;;;;;;;;;;38.30;75.10;;;;;;5038754;28;19913;-70
2023/03/18 06:26:10;;;;;;;;;;;39.20;73.00;;;;;;5040422;28;19920;-70
2023/03/18 06:28:37;;;;;;;;;;;38.40;74.60;;;;;;5037102;28;20372;-71
2023/03/18 06:31:04;;;;;;;;;;;37.70;75.60;;;;;;5040423;28;19917;-70
2023/03/18 06:33:31;;;;;;;;;;;38.00;75.60;;;;;;5025647;28;20254;-71
2023/03/18 06:35:59;;;;;;;;;;;38.40;75.90;;;;;;5030067;28;19923;-69
2023/03/18 06:38:27;;;;;;;;;;;38.20;73.50;;;;;;5041538;28;19935;-70
2023/03/18 06:40:55;;;;;;;;;;;37.30;75.30;;;;;;5040991;28;19920;-69
2023/03/18 06:43:22;;;;;;;;;;;37.20;76.60;;;;;;5022237;28;20373;-69
2023/03/18 06:45:49;;;;;;;;;;;37.20;77.10;;;;;;5027657;28;20536;-69
2023/03/18 06:48:16;;;;;;;;;;;37.60;76.50;;;;;;5040951;28;19952;-71
2023/03/18 06:50:43;;;;;;;;;;;37.20;76.90;;;;;;5041990;28;19917;-71
2023/03/18 06:53:11;;;;;;;;;;;37.60;76.50;;;;;;5040424;28;20406;-71
2023/03/18 06:55:38;;;;;;;;;;;37.40;76.20;;;;;;5041190;28;19999;-70
2023/03/18 06:58:05;;;;;;;;;;;37.30;77.40;;;;;;5039961;28;19913;-70
2023/03/18 07:00:32;;;;;;;;;;;37.60;77.20;;;;;;5040282;28;19999;-70
2023/03/18 07:03:00;;;;;;;;;;;36.90;77.90;;;;;;5041299;28;20311;-70
2023/03/18 07:05:27;;;;;;;;;;;35.90;79.80;;;;;;5040539;28;19912;-70
2023/03/18 07:07:54;;;;;;;;;;;35.40;81.10;;;;;;5042270;28;19962;-70
2023/03/18 07:10:22;;;;;;;;;;;34.40;83.20;;;;;;5039799;28;19982;-70
2023/03/18 07:12:49;;;;;;;;;;;33.60;85.70;;;;;;5041074;28;19909;-70
2023/03/18 07:15:16;;;;;;;;;;;32.50;88.80;;;;;;5040891;28;19956;-70
2023/03/18 07:17:43;;;;;;;;;;;31.60;91.00;;;;;;5040994;28;19989;-70
2023/03/18 07:20:10;;;;;;;;;;;30.70;92.40;;;;;;5040630;28;20013;-69
2023/03/18 07:22:37;;;;;;;;;;;30.10;93.70;;;;;;5040933;28;20276;-69
2023/03/18 07:25:03;;;;;;;;;;;29.60;95.10;;;;;;5040897;28;20243;-69
2023/03/18 07:27:30;;;;;;;;;;;29.20;96.30;;;;;;5041021;28;19923;-68
2023/03/18 07:29:57;;;;;;;;;;;28.90;97.70;;;;;;5040580;28;20433;-67
2023/03/18 07:32:23;;;;;;;;;;;28.70;99.10;;;;;;5038379;28;19913;-68
2023/03/18 07:34:50;;;;;;;;;;;28.40;99.90;;;;;;5040155;28;20534;-71
2023/03/18 07:37:17;;;;;;;;;;;28.20;99.90;;;;;;5040131;28;19963;-70
2023/03/18 07:39:44;;;;;;;;;;;28.00;99.90;;;;;;5041059;28;19968;-70
2023/03/18 07:42:10;;;;;;;;;;;27.80;99.90;;;;;;5039659;28;19974;-70
2023/03/18 07:44:37;;;;;;;;;;;27.50;99.90;;;;;;5041119;28;20007;-70
2023/03/18 07:47:05;;;;;;;;;;;27.30;99.90;;;;;;5040743;28;20341;-71
2023/03/18 07:49:31;;;;;;;;;;;27.30;99.90;;;;;;5039582;28;20319;-70
2023/03/18 07:51:58;;;;;;;;;;;27.20;99.90;;;;;;5039972;28;19912;-70
2023/03/18 07:54:24;;;;;;;;;;;27.10;99.90;;;;;;5039678;28;19996;-69
2023/03/18 07:56:52;;;;;;;;;;;27.20;99.90;;;;;;5040529;28;19920;-69
2023/03/18 07:59:19;;;;;;;;;;;27.10;99.90;;;;;;5040065;28;20007;-69
2023/03/18 08:01:47;;;;;;;;;;;27.10;99.90;;;;;;5039735;28;20358;-68
2023/03/18 08:04:15;;;;;;;;;;;27.10;99.90;;;;;;5038754;28;20240;-70
2023/03/18 08:06:42;;;;;;;;;;;27.10;99.90;;;;;;5039162;28;19913;-69
2023/03/18 08:09:09;;;;;;;;;;;27.10;99.90;;;;;;5039665;28;19917;-69
2023/03/18 08:11:36;;;;;;;;;;;27.00;99.90;;;;;;5039099;28;20020;-68
2023/03/18 08:14:03;;;;;;;;;;;26.90;99.90;;;;;;5040598;28;19935;-67
2023/03/18 08:16:30;;;;;;;;;;;26.90;99.90;;;;;;5039154;28;19912;-68
2023/03/18 08:18:57;;;;;;;;;;;26.80;99.90;;;;;;5040657;28;20247;-68
2023/03/18 08:21:24;;;;;;;;;;;26.70;99.90;;;;;;5039431;28;20370;-69
2023/03/18 08:23:51;;;;;;;;;;;26.60;99.90;;;;;;5040243;28;20342;-69
2023/03/18 08:26:18;;;;;;;;;;;26.60;99.90;;;;;;5039360;28;19913;-69
2023/03/18 08:28:44;;;;;;;;;;;26.40;99.90;;;;;;5040314;28;20254;-69
2023/03/18 08:31:13;;;;;;;;;;;26.50;99.90;;;;;;5039174;28;19935;-69
2023/03/18 08:33:40;;;;;;;;;;;26.40;99.90;;;;;;5039153;28;20464;-69
2023/03/18 08:36:07;;;;;;;;;;;26.40;99.90;;;;;;5038941;28;19919;-71
2023/03/18 08:38:34;;;;;;;;;;;26.40;99.90;;;;;;5038749;28;19919;-70
2023/03/18 08:41:00;;;;;;;;;;;26.40;99.90;;;;;;5038237;28;19935;-70
2023/03/18 08:43:31;;;;;;;;;;;26.30;99.90;;;;;;5038532;28;20223;-71
2023/03/18 08:45:57;;;;;;;;;;;26.30;99.90;;;;;;5038550;28;19913;-69
2023/03/18 08:48:24;;;;;;;;;;;26.20;99.90;;;;;;5038615;28;20431;-70
2023/03/18 08:50:51;;;;;;;;;;;26.00;99.90;;;;;;5039544;28;19909;-71
2023/03/18 08:53:18;;;;;;;;;;;25.90;99.90;;;;;;5038897;28;20011;-70
2023/03/18 08:55:45;;;;;;;;;;;25.90;99.90;;;;;;5039803;28;19920;-69
2023/03/18 08:58:12;;;;;;;;;;;25.90;99.90;;;;;;5039311;28;19920;-71
2023/03/18 09:00:40;;;;;;;;;;;26.00;99.90;;;;;;5039519;28;19912;-68
2023/03/18 09:03:07;;;;;;;;;;;25.90;99.90;;;;;;5038697;28;20419;-68
2023/03/18 09:05:34;;;;;;;;;;;25.90;99.90;;;;;;5039342;28;20480;-70
2023/03/18 09:08:02;;;;;;;;;;;25.90;99.90;;;;;;5039580;28;19917;-70
2023/03/18 09:10:29;;;;;;;;;;;25.90;99.90;;;;;;5039027;28;20365;-70
2023/03/18 09:12:56;;;;;;;;;;;25.90;99.90;;;;;;5038544;28;19968;-68
2023/03/18 09:15:22;;;;;;;;;;;25.90;99.90;;;;;;5037900;28;19909;-69
2023/03/18 09:17:49;;;;;;;;;;;25.90;99.90;;;;;;5038884;28;19931;-68
2023/03/18 09:20:16;;;;;;;;;;;25.80;99.90;;;;;;5040122;28;19913;-73
2023/03/18 09:22:46;;;;;;;;;;;25.90;99.90;;;;;;5075718;28;19955;-70
2023/03/18 09:25:13;;;;;;;;;;;25.80;99.90;;;;;;5042329;28;19909;-69
2023/03/18 09:27:39;;;;;;;;;;;25.80;99.90;;;;;;5042798;28;20640;-70
2023/03/18 09:30:07;;;;;;;;;;;25.80;99.90;;;;;;5041384;28;19983;-69
2023/03/18 09:32:33;;;;;;;;;;;25.80;99.90;;;;;;5040430;28;19913;-69
2023/03/18 09:35:00;;;;;;;;;;;25.80;99.90;;;;;;5042788;28;19913;-69
2023/03/18 09:37:27;;;;;;;;;;;25.80;99.90;;;;;;5040501;28;19916;-70
2023/03/18 09:39:54;;;;;;;;;;;25.70;99.90;;;;;;5043337;28;19916;-71
2023/03/18 09:42:41;;;;;;;;;;;25.70;99.90;;;;;;5041068;28;19921;-69
2023/03/18 09:45:27;;;;;;;;;;;25.60;99.90;;;;;;5041849;28;20004;-70
2023/03/18 09:48:03;;;;;;;;;;;25.70;99.90;;;;;;5043523;28;19920;-70
2023/03/18 09:50:38;;;;;;;;;;;25.70;99.90;;;;;;5042528;28;19921;-69
2023/03/18 09:53:11;;;;;;;;;;;25.70;99.90;;;;;;5042252;28;19971;-71
2023/03/18 09:55:46;;;;;;;;;;;25.70;99.90;;;;;;5042789;28;19920;-69
2023/03/18 09:58:18;;;;;;;;;;;25.70;99.90;;;;;;5040121;28;19916;-68
2023/03/18 10:00:45;;;;;;;;;;;25.70;99.90;;;;;;5041757;28;20020;-69
2023/03/18 10:03:14;;;;;;;;;;;25.70;99.90;;;;;;5035375;28;19912;-70
2023/03/18 10:05:52;;;;;;;;;;;25.80;99.90;;;;;;5042907;28;19920;-70
2023/03/18 10:08:19;;;;;;;;;;;25.80;99.90;;;;;;5041416;28;19928;-71
2023/03/18 10:10:46;;;;;;;;;;;25.80;99.90;;;;;;5042624;28;19952;-69
2023/03/18 10:13:19;;;;;;;;;;;25.80;99.90;;;;;;5042089;28;19916;-69
2023/03/18 10:15:48;;;;;;;;;;;25.80;99.90;;;;;;5042477;28;20281;-69
2023/03/18 10:18:25;;;;;;;;;;;25.70;99.90;;;;;;5042382;28;19963;-67
2023/03/18 10:20:58;;;;;;;;;;;25.60;99.90;;;;;;5041365;28;20471;-70
2023/03/18 10:23:37;;;;;;;;;;;25.60;99.90;;;;;;5071061;28;19912;-69
2023/03/18 10:26:29;;;;;;;;;;;25.60;99.90;;;;;;5042211;28;19909;-72
2023/03/18 10:28:56;;;;;;;;;;;25.60;99.90;;;;;;5041299;28;19925;-73
2023/03/18 10:31:31;;;;;;;;;;;25.50;99.90;;;;;;5040973;28;19909;-72
2023/03/18 10:34:00;;;;;;;;;;;25.50;99.90;;;;;;5042642;28;19916;-73
2023/03/18 10:36:33;;;;;;;;;;;25.60;99.90;;;;;;5041135;28;19952;-69
2023/03/18 10:39:01;;;;;;;;;;;25.60;99.90;;;;;;5034976;28;19913;-68
2023/03/18 10:41:31;;;;;;;;;;;25.60;99.90;;;;;;5049001;28;19960;-72
2023/03/18 10:44:01;;;;;;;;;;;25.50;99.90;;;;;;5041898;28;19919;-69
2023/03/18 10:46:28;;;;;;;;;;;25.50;99.90;;;;;;5040984;28;20420;-72
2023/03/18 10:48:56;;;;;;;;;;;25.60;99.90;;;;;;5040402;28;20462;-72
2023/03/18 10:51:30;;;;;;;;;;;25.50;99.90;;;;;;5041491;28;19923;-74
2023/03/18 10:53:57;;;;;;;;;;;25.50;99.90;;;;;;5040956;28;19917;-71
2023/03/18 10:56:24;;;;;;;;;;;25.50;99.90;;;;;;5040757;28;20474;-72
2023/03/18 10:58:51;;;;;;;;;;;25.50;99.90;;;;;;5039995;28;19952;-73
2023/03/18 11:01:19;;;;;;;;;;;25.50;99.90;;;;;;5040662;28;20392;-74
2023/03/18 11:04:04;;;;;;;;;;;25.40;99.90;;;;;;5040111;28;19920;-70
2023/03/18 11:06:54;;;;;;;;;;;25.40;99.90;;;;;;5040797;28;19910;-73
2023/03/18 11:09:23;;;;;;;;;;;25.40;99.90;;;;;;5041956;28;20392;-73
2023/03/18 11:11:56;;;;;;;;;;;25.40;99.90;;;;;;5040649;28;19920;-73
2023/03/18 11:14:27;;;;;;;;;;;25.40;99.90;;;;;;5041908;28;19917;-70
2023/03/18 11:16:55;;;;;;;;;;;25.40;99.90;;;;;;5041480;28;19909;-71
2023/03/18 11:19:38;;;;;;;;;;;25.40;99.90;;;;;;5041724;28;20003;-71
2023/03/18 11:22:13;;;;;;;;;;;25.40;99.90;;;;;;5040410;28;20353;-70
2023/03/18 11:24:43;;;;;;;;;;;25.40;99.90;;;;;;5041273;28;19952;-72
2023/03/18 11:27:13;;;;;;;;;;;25.40;99.90;;;;;;5041964;28;20365;-70
2023/03/18 11:29:41;;;;;;;;;;;25.40;99.90;;;;;;5040966;28;20052;-70
2023/03/18 11:32:23;;;;;;;;;;;25.40;99.90;;;;;;5041627;28;19952;-69
2023/03/18 11:35:19;;;;;;;;;;;25.40;99.90;;;;;;5040016;28;20346;-70
2023/03/18 11:37:46;;;;;;;;;;;25.40;99.90;;;;;;5037501;28;19909;-69
2023/03/18 11:40:13;;;;;;;;;;;25.40;99.90;;;;;;5040608;28;19921;-70
2023/03/18 11:42:42;;;;;;;;;;;25.30;99.90;;;;;;5040631;28;19909;-69
2023/03/18 11:45:26;;;;;;;;;;;25.40;99.90;;;;;;5040316;28;19920;-70
2023/03/18 11:47:53;;;;;;;;;;;25.30;99.90;;;;;;5039037;28;19932;-69
2023/03/18 11:50:24;;;;;;;;;;;25.30;99.90;;;;;;5040336;28;19921;-70
2023/03/18 11:52:51;;;;;;;;;;;25.20;99.90;;;;;;5039031;28;20357;-69
2023/03/18 11:55:44;;;;;;;;;;;25.20;99.90;;;;;;5039239;28;20250;-69
2023/03/18 11:58:28;;;;;;;;;;;25.20;99.90;;;;;;5021326;28;19948;-69
2023/03/18 12:01:01;;;;;;;;;;;25.20;99.90;;;;;;5019813;28;20413;-69
2023/03/18 12:03:28;;;;;;;;;;;25.20;99.90;;;;;;5038246;28;19967;-70
2023/03/18 12:05:55;;;;;;;;;;;25.20;99.90;;;;;;5039193;28;19948;-67
2023/03/18 12:08:28;;;;;;;;;;;25.20;99.90;;;;;;5040512;28;20381;-67
2023/03/18 12:11:15;;;;;;;;;;;25.10;99.90;;;;;;5036979;28;20005;-72
2023/03/18 12:13:47;;;;;;;;;;;25.10;99.90;;;;;;5038548;28;19963;-69
2023/03/18 12:16:23;;;;;;;;;;;25.10;99.90;;;;;;5038092;28;20407;-69
2023/03/18 12:18:58;;;;;;;;;;;25.10;99.90;;;;;;5037336;28;19909;-70
2023/03/18 12:21:24;;;;;;;;;;;25.00;99.90;;;;;;5040316;28;20451;-69
2023/03/18 12:23:51;;;;;;;;;;;25.00;99.90;;;;;;5038859;28;19948;-70
2023/03/18 12:26:18;;;;;;;;;;;25.00;99.90;;;;;;5040195;28;19905;-69
2023/03/18 12:28:56;;;;;;;;;;;25.00;99.90;;;;;;5039415;28;19921;-68
2023/03/18 12:31:44;;;;;;;;;;;24.90;99.90;;;;;;5040671;28;19925;-71
2023/03/18 12:34:30;;;;;;;;;;;24.90;99.90;;;;;;5037290;28;20284;-69
2023/03/18 12:36:57;;;;;;;;;;;24.80;99.90;;;;;;5045662;28;20399;-69
2023/03/18 12:39:38;;;;;;;;;;;24.80;99.90;;;;;;5040362;28;19915;-69
2023/03/18 12:42:14;;;;;;;;;;;24.80;99.90;;;;;;5037564;28;20359;-70
2023/03/18 12:45:06;;;;;;;;;;;24.70;99.90;;;;;;5039719;28;19960;-70
2023/03/18 12:47:33;;;;;;;;;;;24.70;99.90;;;;;;5039546;28;19948;-70
2023/03/18 12:50:12;;;;;;;;;;;24.70;99.90;;;;;;5035562;28;19920;-68
2023/03/18 12:52:48;;;;;;;;;;;24.60;99.90;;;;;;5039550;28;20012;-71
2023/03/18 12:55:46;;;;;;;;;;;24.60;99.90;;;;;;5040652;28;20294;-70
2023/03/18 12:58:14;;;;;;;;;;;24.60;99.90;;;;;;5040607;28;19916;-70
2023/03/18 13:00:40;;;;;;;;;;;24.60;99.90;;;;;;5041910;28;20515;-69
2023/03/18 13:03:45;;;;;;;;;;;24.50;99.90;;;;;;5043223;28;19909;-69
2023/03/18 13:06:26;;;;;;;;;;;24.50;99.90;;;;;;5021129;28;20382;-69
2023/03/18 13:09:01;;;;;;;;;;;24.50;99.90;;;;;;5022658;28;19978;-68
2023/03/18 13:11:51;;;;;;;;;;;24.50;99.90;;;;;;5038057;28;20382;-69
2023/03/18 13:14:21;;;;;;;;;;;24.40;99.90;;;;;;5042992;28;20004;-69
2023/03/18 13:16:49;;;;;;;;;;;24.40;99.90;;;;;;5041996;28;20347;-68
2023/03/18 13:19:17;;;;;;;;;;;24.40;99.90;;;;;;5043844;28;19909;-73
2023/03/18 13:22:19;;;;;;;;;;;24.40;99.90;;;;;;5041269;28;19969;-71
2023/03/18 13:24:52;;;;;;;;;;;24.40;99.90;;;;;;5041091;28;19913;-71
2023/03/18 13:27:25;;;;;;;;;;;24.30;99.90;;;;;;5042260;28;20591;-71
2023/03/18 13:30:00;;;;;;;;;;;24.30;99.90;;;;;;5042720;28;20012;-70
2023/03/18 13:32:26;;;;;;;;;;;24.30;99.90;;;;;;5041455;28;19913;-68
2023/03/18 13:34:53;;;;;;;;;;;24.30;99.90;;;;;;5042844;28;19912;-69
2023/03/18 13:37:32;;;;;;;;;;;24.20;99.90;;;;;;5042900;28;20529;-70
2023/03/18 13:39:59;;;;;;;;;;;24.30;99.90;;;;;;5043345;28;19923;-70
2023/03/18 13:42:32;;;;;;;;;;;24.20;99.90;;;;;;5043557;28;19976;-69
2023/03/18 13:45:05;;;;;;;;;;;24.20;99.90;;;;;;5043378;28;20011;-68
2023/03/18 13:47:33;;;;;;;;;;;24.20;99.90;;;;;;5044280;28;20326;-73
2023/03/18 13:50:05;;;;;;;;;;;24.20;99.90;;;;;;5042693;28;20428;-69
2023/03/18 13:52:42;;;;;;;;;;;24.10;99.90;;;;;;5043953;28;19912;-71
2023/03/18 13:55:30;;;;;;;;;;;24.10;99.90;;;;;;5042326;28;19909;-72
2023/03/18 13:58:12;;;;;;;;;;;24.10;99.90;;;;;;5042834;28;20251;-70
2023/03/18 14:00:40;;;;;;;;;;;24.10;99.90;;;;;;5043581;28;19919;-72
2023/03/18 14:03:21;;;;;;;;;;;24.00;99.90;;;;;;5042493;28;19920;-71
2023/03/18 14:05:50;;;;;;;;;;;24.00;99.90;;;;;;5043573;28;19937;-72
2023/03/18 14:08:36;;;;;;;;;;;24.00;99.90;;;;;;5041378;28;20086;-69
2023/03/18 14:11:15;;;;;;;;;;;24.00;99.90;;;;;;5042613;28;19955;-68
2023/03/18 14:14:05;;;;;;;;;;;23.90;99.90;;;;;;5043311;28;19956;-69
2023/03/18 14:16:37;;;;;;;;;;;23.90;99.90;;;;;;5042826;28;20018;-73
2023/03/18 14:19:10;;;;;;;;;;;23.90;99.90;;;;;;5042789;28;19995;-71
2023/03/18 14:21:43;;;;;;;;;;;23.90;99.90;;;;;;5043306;28;19923;-70
2023/03/18 14:24:10;;;;;;;;;;;24.00;99.90;;;;;;5042324;28;19913;-68
2023/03/18 14:26:37;;;;;;;;;;;23.90;99.90;;;;;;5042707;28;19947;-68
2023/03/18 14:29:08;;;;;;;;;;;23.90;99.90;;;;;;5042501;28;19942;-70
2023/03/18 14:31:34;;;;;;;;;;;23.90;99.90;;;;;;5042674;28;19919;-69